Terminal Aerodrome Forecast
Issued by NWS

Home | Current Version | Previous Version | Graphics & Text | Print | Product List | Glossary On
Versions: 1 2 3 4 5 6 7 8 9 10 11 12 13 14
000
FTUS43 KMPX 232146 AAA
TAFRWF
TAF AMD
KRWF 232146Z 2322/2418 15013KT P6SM VCSH SCT030 BKN050
     FM240400 22011KT P6SM SCT040 BKN070
     FM240700 27008KT P6SM SKC
     FM241700 29012G18KT P6SM FEW250=

USA.gov is the U.S. government's official web portal to all federal, state and local government web resources and services.